createdAt,value
2023-04-21T00:00:08.538Z,27.10
2023-04-21T00:01:08.502Z,25.60
2023-04-21T00:02:08.617Z,29.60
2023-04-21T00:03:08.598Z,28.60
2023-04-21T00:04:08.546Z,29.80
2023-04-21T00:05:08.604Z,25.60
2023-04-21T00:06:08.464Z,27.10
2023-04-21T00:07:08.427Z,28.30
2023-04-21T00:08:08.611Z,27.70
2023-04-21T00:09:08.394Z,28.70
2023-04-21T00:10:08.412Z,28.80
2023-04-21T00:11:09.217Z,29.30
2023-04-21T00:12:08.419Z,28.60
2023-04-21T00:13:08.351Z,27.10
2023-04-21T00:14:09.165Z,29.90
2023-04-21T00:15:08.404Z,29.90
2023-04-21T00:16:08.358Z,27.70
2023-04-21T00:17:08.381Z,27.40
2023-04-21T00:18:08.426Z,29.10
2023-04-21T00:19:08.548Z,28.90
2023-04-21T00:20:08.295Z,26.40
2023-04-21T00:21:08.401Z,30.00
2023-04-21T00:22:08.273Z,27.50
2023-04-21T00:23:08.215Z,29.40
2023-04-21T00:24:08.238Z,30.00
2023-04-21T00:25:08.259Z,30.10
2023-04-21T00:26:08.264Z,28.40
2023-04-21T00:27:08.177Z,28.80
2023-04-21T00:28:08.209Z,27.10
2023-04-21T00:29:08.207Z,28.60
2023-04-21T00:30:08.194Z,28.50
2023-04-21T00:31:08.243Z,28.00
2023-04-21T00:32:08.162Z,27.10
2023-04-21T00:33:08.229Z,30.40
2023-04-21T00:34:08.124Z,30.20
2023-04-21T00:35:08.111Z,28.90
2023-04-21T00:36:08.127Z,28.40
2023-04-21T00:37:08.080Z,29.70
2023-04-21T00:38:08.084Z,30.20
2023-04-21T00:39:08.056Z,29.20
2023-04-21T00:40:08.078Z,27.20
2023-04-21T00:41:08.048Z,30.20
2023-04-21T00:42:08.036Z,30.50
2023-04-21T00:43:08.038Z,26.20
2023-04-21T00:44:08.016Z,27.50
2023-04-21T00:45:07.988Z,27.60
2023-04-21T00:46:08.029Z,29.10
2023-04-21T00:47:08.158Z,27.70
2023-04-21T00:48:08.008Z,28.50
2023-04-21T00:49:08.092Z,28.50
2023-04-21T00:50:07.946Z,30.70
2023-04-21T00:51:07.896Z,29.10
2023-04-21T00:52:07.949Z,29.50
2023-04-21T00:53:07.891Z,29.30
2023-04-21T00:54:07.942Z,26.10
2023-04-21T00:55:08.744Z,31.50
2023-04-21T00:56:07.936Z,28.40
2023-04-21T00:57:07.896Z,30.60
2023-04-21T00:58:07.869Z,29.00
2023-04-21T00:59:07.858Z,30.30
2023-04-21T01:00:07.833Z,28.10
2023-04-21T01:01:07.917Z,29.40
2023-04-21T01:02:07.960Z,27.00
2023-04-21T01:03:08.006Z,29.50
2023-04-21T01:04:08.112Z,28.70
2023-04-21T01:05:07.752Z,29.60
2023-04-21T01:06:07.784Z,26.90
2023-04-21T01:07:07.740Z,26.70
2023-04-21T01:08:07.829Z,28.00
2023-04-21T01:09:07.702Z,29.10
2023-04-21T01:10:07.720Z,28.30
2023-04-21T01:11:07.734Z,26.40
2023-04-21T01:12:07.708Z,28.10
2023-04-21T01:13:07.761Z,27.40
2023-04-21T01:14:07.689Z,30.30
2023-04-21T01:15:07.635Z,28.90
2023-04-21T01:16:07.683Z,28.40
2023-04-21T01:17:07.677Z,27.40
2023-04-21T01:18:07.660Z,28.50
2023-04-21T01:19:07.585Z,28.70
2023-04-21T01:20:07.688Z,30.60
2023-04-21T01:21:15.129Z,29.00
2023-04-21T01:22:07.571Z,29.20
2023-04-21T01:23:07.535Z,27.00
2023-04-21T01:24:07.543Z,28.00
2023-04-21T01:25:07.537Z,27.30
2023-04-21T01:26:07.542Z,28.60
2023-04-21T01:27:07.489Z,27.40
2023-04-21T01:28:07.529Z,29.20
2023-04-21T01:29:07.473Z,26.00
2023-04-21T01:30:07.509Z,30.10
2023-04-21T01:31:07.457Z,27.50
2023-04-21T01:32:07.512Z,26.20
2023-04-21T01:33:07.466Z,26.30
2023-04-21T01:34:07.452Z,27.90
2023-04-21T01:35:07.411Z,27.30
2023-04-21T01:36:07.481Z,31.00
2023-04-21T01:37:07.388Z,29.50
2023-04-21T01:38:07.405Z,30.20
2023-04-21T01:39:07.369Z,28.90
2023-04-21T01:40:07.371Z,29.00
2023-04-21T01:41:07.338Z,29.10
2023-04-21T01:42:07.330Z,27.90
2023-04-21T01:43:07.310Z,33.40
2023-04-21T01:44:07.321Z,32.60
2023-04-21T01:45:07.309Z,31.00
2023-04-21T01:46:07.562Z,34.70
2023-04-21T01:47:07.288Z,33.00
2023-04-21T01:48:07.338Z,33.10
2023-04-21T01:49:07.230Z,31.90
2023-04-21T01:50:07.382Z,30.40
2023-04-21T01:51:07.388Z,31.00
2023-04-21T01:52:07.237Z,33.60
2023-04-21T01:53:07.181Z,32.50
2023-04-21T01:54:07.301Z,31.50
2023-04-21T01:55:07.189Z,31.50
2023-04-21T01:56:07.177Z,30.10
2023-04-21T01:57:07.414Z,32.50
2023-04-21T01:58:07.322Z,29.20
2023-04-21T01:59:07.176Z,32.50
2023-04-21T02:00:07.169Z,28.80
2023-04-21T02:01:07.157Z,29.70
2023-04-21T02:02:07.289Z,28.00
2023-04-21T02:03:07.214Z,26.50
2023-04-21T02:04:07.251Z,27.90
2023-04-21T02:05:07.055Z,25.80
2023-04-21T02:06:07.122Z,27.50
2023-04-21T02:07:07.369Z,27.30
2023-04-21T02:08:07.154Z,27.80
2023-04-21T02:09:07.047Z,28.90
2023-04-21T02:10:07.252Z,27.00
2023-04-21T02:11:06.962Z,28.20
2023-04-21T02:12:07.243Z,26.60
2023-04-21T02:13:06.989Z,28.10
2023-04-21T02:14:07.027Z,28.00
2023-04-21T02:15:07.020Z,26.00
2023-04-21T02:16:13.877Z,25.20
2023-04-21T02:17:08.975Z,25.60
2023-04-21T02:18:07.142Z,25.20
2023-04-21T02:19:06.959Z,26.90
2023-04-21T02:20:06.929Z,25.20
2023-04-21T02:21:06.887Z,24.40
2023-04-21T02:22:06.929Z,26.60
2023-04-21T02:23:06.934Z,27.10
2023-04-21T02:24:06.920Z,26.60
2023-04-21T02:25:07.178Z,26.70
2023-04-21T02:26:06.884Z,26.80
2023-04-21T02:27:06.820Z,28.40
2023-04-21T02:28:06.870Z,27.80
2023-04-21T02:29:06.822Z,28.30
2023-04-21T02:30:06.900Z,28.30
2023-04-21T02:31:06.786Z,27.80
2023-04-21T02:33:06.791Z,26.30
2023-04-21T02:34:06.722Z,26.20
2023-04-21T02:35:06.719Z,26.70
2023-04-21T02:36:06.683Z,28.30
2023-04-21T02:37:06.716Z,26.10
2023-04-21T02:38:06.685Z,27.60
2023-04-21T02:39:06.678Z,26.70
2023-04-21T02:40:06.644Z,23.50
2023-04-21T02:41:06.755Z,25.60
2023-04-21T02:42:06.702Z,25.90
2023-04-21T02:43:06.676Z,26.50
2023-04-21T02:44:06.617Z,29.00
2023-04-21T02:45:06.594Z,27.00
2023-04-21T02:46:06.623Z,29.10
2023-04-21T02:47:06.612Z,28.80
2023-04-21T02:48:06.655Z,29.00
2023-04-21T02:49:06.563Z,30.40
2023-04-21T02:50:06.520Z,27.60
2023-04-21T02:51:06.585Z,26.60
2023-04-21T02:52:06.551Z,25.40
2023-04-21T02:53:06.528Z,27.60
2023-04-21T02:54:06.513Z,25.10
2023-04-21T02:55:06.492Z,26.70
2023-04-21T02:56:06.451Z,24.80
2023-04-21T02:57:06.457Z,24.90
2023-04-21T02:58:06.607Z,25.20
2023-04-21T02:59:06.436Z,28.40
2023-04-21T03:00:06.397Z,28.30
2023-04-21T03:01:06.506Z,30.40
2023-04-21T03:02:06.393Z,32.40
2023-04-21T03:03:06.474Z,28.70
2023-04-21T03:04:06.629Z,27.90
2023-04-21T03:05:06.511Z,30.30
2023-04-21T03:06:06.382Z,29.30
2023-04-21T03:07:06.391Z,26.90
2023-04-21T03:08:06.341Z,28.30
2023-04-21T03:09:06.400Z,29.30
2023-04-21T03:10:06.337Z,29.90
2023-04-21T03:11:06.359Z,28.10
2023-04-21T03:12:06.276Z,29.50
2023-04-21T03:13:06.376Z,26.70
2023-04-21T03:14:06.683Z,30.00
2023-04-21T03:15:06.356Z,29.70
2023-04-21T03:16:06.285Z,28.60
2023-04-21T03:17:06.271Z,27.90
2023-04-21T03:18:06.385Z,29.20
2023-04-21T03:19:06.911Z,28.20
2023-04-21T03:20:06.387Z,28.40
2023-04-21T03:21:06.201Z,26.30
2023-04-21T03:22:06.340Z,27.10
2023-04-21T03:23:06.234Z,25.80
2023-04-21T03:24:06.216Z,26.00
2023-04-21T03:25:06.162Z,27.50
2023-04-21T03:26:06.173Z,28.10
2023-04-21T03:27:06.165Z,25.00
2023-04-21T03:28:06.318Z,26.40
2023-04-21T03:29:06.237Z,26.90
2023-04-21T03:30:06.175Z,26.50
2023-04-21T03:31:06.208Z,27.30
2023-04-21T03:32:06.494Z,28.80
2023-04-21T03:33:06.093Z,27.20
2023-04-21T03:34:06.072Z,29.00
2023-04-21T03:35:06.130Z,28.80
2023-04-21T03:36:06.003Z,26.90
2023-04-21T03:37:06.046Z,27.30
2023-04-21T03:38:05.988Z,29.30
2023-04-21T03:39:20.578Z,29.80
2023-04-21T03:40:06.957Z,29.90
2023-04-21T03:41:06.170Z,29.70
2023-04-21T03:42:05.971Z,27.40
2023-04-21T03:43:05.969Z,27.80
2023-04-21T03:44:06.020Z,30.80
2023-04-21T03:45:05.934Z,28.30
2023-04-21T03:46:06.018Z,29.00
2023-04-21T03:47:05.998Z,29.40
2023-04-21T03:48:05.906Z,26.70
2023-04-21T03:49:05.940Z,33.20
2023-04-21T03:50:05.901Z,42.50
2023-04-21T03:51:05.932Z,36.90
2023-04-21T03:52:05.884Z,34.00
2023-04-21T03:53:05.801Z,32.80
2023-04-21T03:54:05.814Z,35.30
2023-04-21T03:55:05.798Z,34.60
2023-04-21T03:56:05.905Z,34.00
2023-04-21T03:57:05.759Z,35.30
2023-04-21T03:58:05.784Z,33.90
2023-04-21T03:59:05.777Z,35.90
2023-04-21T04:00:05.771Z,34.60
2023-04-21T04:01:05.767Z,32.30
2023-04-21T04:02:05.743Z,33.30
2023-04-21T04:03:06.007Z,34.30
2023-04-21T04:04:05.856Z,32.70
2023-04-21T04:05:05.708Z,34.40
2023-04-21T04:06:05.711Z,32.20
2023-04-21T04:07:05.703Z,31.00
2023-04-21T04:08:05.697Z,35.20
2023-04-21T04:09:05.895Z,34.00
2023-04-21T04:10:05.678Z,35.50
2023-04-21T04:11:05.621Z,32.60
2023-04-21T04:12:05.610Z,33.60
2023-04-21T04:13:06.013Z,33.20
2023-04-21T04:14:05.533Z,35.20
2023-04-21T04:15:05.736Z,32.60
2023-04-21T04:16:05.587Z,35.90
2023-04-21T04:17:05.584Z,37.50
2023-04-21T04:18:05.594Z,32.50
2023-04-21T04:19:05.710Z,31.80
2023-04-21T04:20:05.541Z,32.80
2023-04-21T04:21:05.508Z,33.20
2023-04-21T04:22:05.700Z,34.20
2023-04-21T04:23:05.489Z,33.50
2023-04-21T04:24:05.725Z,33.20
2023-04-21T04:25:05.513Z,33.50
2023-04-21T04:26:05.574Z,30.80
2023-04-21T04:27:05.412Z,31.30
2023-04-21T04:28:05.533Z,32.50
2023-04-21T04:29:05.637Z,33.90
2023-04-21T04:30:05.421Z,31.90
2023-04-21T04:31:05.444Z,32.20
2023-04-21T04:32:05.352Z,31.80
2023-04-21T04:33:05.408Z,30.60
2023-04-21T04:34:05.322Z,31.30
2023-04-21T04:35:05.349Z,30.00
2023-04-21T04:36:05.293Z,30.20
2023-04-21T04:37:05.434Z,31.70
2023-04-21T04:38:05.273Z,32.40
2023-04-21T04:39:06.293Z,30.90
2023-04-21T04:40:05.623Z,30.80
2023-04-21T04:41:05.268Z,32.20
2023-04-21T04:42:05.445Z,31.00
2023-04-21T04:43:05.363Z,30.50
2023-04-21T04:44:05.287Z,31.80
2023-04-21T04:45:05.213Z,35.30
2023-04-21T04:46:05.171Z,30.70
2023-04-21T04:47:05.320Z,33.80
2023-04-21T04:48:05.225Z,32.00
2023-04-21T04:49:05.250Z,30.50
2023-04-21T04:50:05.169Z,34.00
2023-04-21T04:51:05.158Z,33.40
2023-04-21T04:52:05.117Z,33.80
2023-04-21T04:53:05.220Z,32.90
2023-04-21T04:54:05.122Z,32.60
2023-04-21T04:55:05.149Z,33.40
2023-04-21T04:56:05.092Z,33.70
2023-04-21T04:57:05.195Z,35.50
2023-04-21T04:58:05.038Z,36.30
2023-04-21T04:59:05.059Z,34.70
2023-04-21T05:00:05.025Z,33.10
2023-04-21T05:01:05.022Z,35.60
2023-04-21T05:02:05.060Z,33.40
2023-04-21T05:03:05.201Z,34.70
2023-04-21T05:04:05.279Z,38.10
2023-04-21T05:05:05.071Z,31.00
2023-04-21T05:06:04.974Z,33.40
2023-04-21T05:07:04.969Z,34.30
2023-04-21T05:08:04.947Z,34.10
2023-04-21T05:09:04.980Z,34.10
2023-04-21T05:10:04.927Z,33.50
2023-04-21T05:11:04.998Z,33.60
2023-04-21T05:12:04.911Z,36.00
2023-04-21T05:13:04.952Z,33.40
2023-04-21T05:14:04.866Z,35.50
2023-04-21T05:15:04.928Z,33.30
2023-04-21T05:16:04.877Z,33.90
2023-04-21T05:17:04.983Z,32.70
2023-04-21T05:18:05.003Z,33.10
2023-04-21T05:19:04.833Z,33.00
2023-04-21T05:20:04.846Z,36.20
2023-04-21T05:21:04.783Z,32.80
2023-04-21T05:22:04.799Z,32.50
2023-04-21T05:23:04.866Z,29.60
2023-04-21T05:24:04.868Z,30.80
2023-04-21T05:25:04.802Z,33.70
2023-04-21T05:26:05.140Z,29.90
2023-04-21T05:27:04.742Z,30.20
2023-04-21T05:28:04.697Z,33.60
2023-04-21T05:29:04.723Z,33.00
2023-04-21T05:30:04.669Z,31.50
2023-04-21T05:31:04.700Z,31.90
2023-04-21T05:32:04.754Z,33.00
2023-04-21T05:33:04.689Z,30.80
2023-04-21T05:34:04.646Z,31.30
2023-04-21T05:35:05.046Z,29.60
2023-04-21T05:36:04.806Z,31.20
2023-04-21T05:37:04.682Z,30.30
2023-04-21T05:38:04.723Z,28.50
2023-04-21T05:39:04.810Z,32.00
2023-04-21T05:40:04.919Z,30.10
2023-04-21T05:41:05.313Z,29.80
2023-04-21T05:42:04.574Z,28.60
2023-04-21T05:43:05.475Z,31.20
2023-04-21T05:44:04.538Z,32.20
2023-04-21T05:45:05.304Z,29.60
2023-04-21T05:46:04.892Z,31.60
2023-04-21T05:47:05.245Z,31.10
2023-04-21T05:48:04.551Z,33.10
2023-04-21T05:49:04.493Z,30.50
2023-04-21T05:50:04.429Z,32.20
2023-04-21T05:51:04.495Z,29.40
2023-04-21T05:52:04.409Z,29.70
2023-04-21T05:53:04.463Z,28.60
2023-04-21T05:54:04.406Z,27.70
2023-04-21T05:55:04.402Z,27.90
2023-04-21T05:56:04.388Z,28.60
2023-04-21T05:57:04.378Z,29.30
2023-04-21T05:58:04.349Z,29.10
2023-04-21T05:59:04.367Z,31.30
2023-04-21T06:00:04.324Z,25.80
2023-04-21T06:01:05.294Z,27.90
2023-04-21T06:02:04.471Z,26.80
2023-04-21T06:03:04.518Z,30.80
2023-04-21T06:04:04.808Z,30.50
2023-04-21T06:05:04.572Z,31.70
2023-04-21T06:06:04.286Z,30.10
2023-04-21T06:07:05.368Z,27.50
2023-04-21T06:08:04.227Z,27.50
2023-04-21T06:09:04.242Z,27.60
2023-04-21T06:10:04.217Z,27.50
2023-04-21T06:11:04.212Z,25.30
2023-04-21T06:12:04.214Z,26.70
2023-04-21T06:13:04.862Z,28.20
2023-04-21T06:14:04.209Z,26.20
2023-04-21T06:15:04.429Z,26.30
2023-04-21T06:16:04.194Z,27.90
2023-04-21T06:17:04.165Z,29.30
2023-04-21T06:18:04.162Z,26.90
2023-04-21T06:19:04.173Z,30.10
2023-04-21T06:20:04.184Z,28.20
2023-04-21T06:21:04.110Z,30.20
2023-04-21T06:22:04.078Z,25.00
2023-04-21T06:23:04.090Z,26.60
2023-04-21T06:24:04.065Z,25.60
2023-04-21T06:25:04.075Z,22.10
2023-04-21T06:26:04.020Z,24.20
2023-04-21T06:27:04.051Z,26.50
2023-04-21T06:28:04.022Z,23.70
2023-04-21T06:29:04.083Z,24.00
2023-04-21T06:30:04.834Z,25.40
2023-04-21T06:31:08.000Z,22.40
2023-04-21T06:32:04.119Z,23.50
2023-04-21T06:33:04.006Z,21.30
2023-04-21T06:34:03.996Z,23.10
2023-04-21T06:35:03.981Z,23.40
2023-04-21T06:36:03.961Z,24.10
2023-04-21T06:37:03.929Z,22.10
2023-04-21T06:38:03.906Z,24.80
2023-04-21T06:39:03.934Z,21.70
2023-04-21T06:40:03.875Z,22.20
2023-04-21T06:41:03.876Z,22.70
2023-04-21T06:42:04.321Z,23.00
2023-04-21T06:43:03.860Z,22.00
2023-04-21T06:44:03.932Z,22.80
2023-04-21T06:45:03.829Z,22.60
2023-04-21T06:46:03.824Z,21.40
2023-04-21T06:47:03.829Z,23.70
2023-04-21T06:48:03.865Z,23.50
2023-04-21T06:49:03.778Z,21.80
2023-04-21T06:50:03.809Z,19.90
2023-04-21T06:51:03.763Z,22.70
2023-04-21T06:52:03.749Z,22.80
2023-04-21T06:53:03.732Z,23.10
2023-04-21T06:54:03.865Z,20.90
2023-04-21T06:55:03.697Z,22.90
2023-04-21T06:56:03.707Z,24.40
2023-04-21T06:57:03.696Z,24.30
2023-04-21T06:58:03.682Z,21.70
2023-04-21T06:59:03.667Z,20.50
2023-04-21T07:00:03.700Z,20.20
2023-04-21T07:01:03.790Z,20.60
2023-04-21T07:02:03.744Z,22.20
2023-04-21T07:03:03.687Z,21.20
2023-04-21T07:04:03.807Z,21.60
2023-04-21T07:05:03.605Z,23.10
2023-04-21T07:06:03.606Z,20.60
2023-04-21T07:07:03.578Z,20.30
2023-04-21T07:08:03.573Z,21.60
2023-04-21T07:09:03.550Z,20.70
2023-04-21T07:10:03.550Z,23.30
2023-04-21T07:11:03.561Z,21.50
2023-04-21T07:12:03.584Z,19.90
2023-04-21T07:13:03.513Z,23.40
2023-04-21T07:14:03.505Z,20.80
2023-04-21T07:15:03.480Z,22.00
2023-04-21T07:16:03.490Z,20.50
2023-04-21T07:17:03.532Z,21.50
2023-04-21T07:18:03.579Z,23.00
2023-04-21T07:19:03.425Z,21.20
2023-04-21T07:20:03.437Z,22.70
2023-04-21T07:21:03.418Z,22.80
2023-04-21T07:22:03.416Z,21.00
2023-04-21T07:23:03.404Z,24.30
2023-04-21T07:24:03.456Z,21.70
2023-04-21T07:25:03.451Z,21.20
2023-04-21T07:26:03.390Z,23.80
2023-04-21T07:27:03.338Z,21.30
2023-04-21T07:28:03.356Z,22.10
2023-04-21T07:29:03.300Z,21.90
2023-04-21T07:30:03.354Z,20.30
2023-04-21T07:31:03.681Z,21.80
2023-04-21T07:32:03.305Z,23.00
2023-04-21T07:33:03.312Z,22.00
2023-04-21T07:34:03.284Z,24.10
2023-04-21T07:35:03.262Z,22.00
2023-04-21T07:36:03.270Z,23.30
2023-04-21T07:37:03.217Z,20.80
2023-04-21T07:38:03.318Z,21.50
2023-04-21T07:39:03.237Z,22.10
2023-04-21T07:40:03.227Z,22.50
2023-04-21T07:41:03.184Z,21.60
2023-04-21T07:42:03.964Z,24.20
2023-04-21T07:43:03.458Z,23.00
2023-04-21T07:44:03.178Z,21.50
2023-04-21T07:45:03.166Z,23.20
2023-04-21T07:46:03.174Z,23.30
2023-04-21T07:47:03.111Z,25.90
2023-04-21T07:48:03.237Z,24.00
2023-04-21T07:49:04.141Z,21.60
2023-04-21T07:50:03.095Z,23.30
2023-04-21T07:51:03.042Z,21.80
2023-04-21T07:52:03.083Z,24.30
2023-04-21T07:53:03.037Z,22.50
2023-04-21T07:54:03.054Z,21.10
2023-04-21T07:55:03.052Z,22.90
2023-04-21T07:56:03.030Z,27.00
2023-04-21T07:57:02.977Z,22.10
2023-04-21T07:58:02.996Z,22.00
2023-04-21T07:59:02.964Z,24.90
2023-04-21T08:00:02.974Z,25.00
2023-04-21T08:01:02.934Z,24.30
2023-04-21T08:02:03.018Z,25.30
2023-04-21T08:03:02.968Z,23.60
2023-04-21T08:04:03.006Z,23.50
2023-04-21T08:05:02.969Z,24.10
2023-04-21T08:06:03.375Z,22.00
2023-04-21T08:07:03.059Z,23.70
2023-04-21T08:08:02.905Z,23.70
2023-04-21T08:09:02.896Z,21.60
2023-04-21T08:10:02.861Z,23.80
2023-04-21T08:11:02.880Z,24.50
2023-04-21T08:12:02.871Z,23.20
2023-04-21T08:13:02.805Z,23.00
2023-04-21T08:14:02.841Z,23.80
2023-04-21T08:15:02.792Z,23.90
2023-04-21T08:16:02.821Z,26.30
2023-04-21T08:17:02.867Z,23.70
2023-04-21T08:18:02.825Z,24.40
2023-04-21T08:19:02.790Z,24.00
2023-04-21T08:20:02.747Z,27.20
2023-04-21T08:21:02.729Z,22.90
2023-04-21T08:22:02.731Z,23.50
2023-04-21T08:23:02.737Z,24.60
2023-04-21T08:24:02.754Z,25.50
2023-04-21T08:25:02.696Z,25.10
2023-04-21T08:26:02.710Z,23.90
2023-04-21T08:27:02.658Z,22.90
2023-04-21T08:28:02.673Z,22.70
2023-04-21T08:29:04.339Z,24.30
2023-04-21T08:30:02.850Z,24.50
2023-04-21T08:31:02.801Z,23.30
2023-04-21T08:32:02.668Z,27.40
2023-04-21T08:33:10.683Z,24.30
2023-04-21T08:34:03.158Z,25.30
2023-04-21T08:35:02.574Z,25.90
2023-04-21T08:36:05.803Z,24.80
2023-04-21T08:37:03.558Z,23.60
2023-04-21T08:38:02.568Z,26.40
2023-04-21T08:39:02.564Z,24.00
2023-04-21T08:40:02.564Z,24.80
2023-04-21T08:41:02.507Z,24.80
2023-04-21T08:42:02.516Z,23.20
2023-04-21T08:43:02.609Z,25.80
2023-04-21T08:44:02.487Z,23.60
2023-04-21T08:45:02.482Z,25.20
2023-04-21T08:46:03.339Z,24.40
2023-04-21T08:47:02.501Z,24.10
2023-04-21T08:48:02.524Z,27.10
2023-04-21T08:49:02.427Z,24.30
2023-04-21T08:50:02.463Z,26.20
2023-04-21T08:51:02.388Z,27.10
2023-04-21T08:52:02.402Z,26.10
2023-04-21T08:53:02.474Z,22.70
2023-04-21T08:54:02.402Z,24.30
2023-04-21T08:55:02.370Z,23.50
2023-04-21T08:56:10.788Z,24.30
2023-04-21T08:57:14.184Z,21.90
2023-04-21T08:58:03.356Z,22.30
2023-04-21T08:59:02.308Z,20.60
2023-04-21T09:00:02.431Z,24.10
2023-04-21T09:01:02.262Z,23.70
2023-04-21T09:02:02.449Z,22.10
2023-04-21T09:03:02.805Z,22.80
2023-04-21T09:04:02.388Z,24.40
2023-04-21T09:05:02.608Z,24.60
2023-04-21T09:06:02.747Z,23.70
2023-04-21T09:07:02.222Z,24.50
2023-04-21T09:08:02.326Z,21.70
2023-04-21T09:09:02.209Z,24.60
2023-04-21T09:10:02.245Z,23.60
2023-04-21T09:11:02.202Z,23.80
2023-04-21T09:12:02.256Z,22.70
2023-04-21T09:13:02.157Z,22.70
2023-04-21T09:14:02.170Z,25.60
2023-04-21T09:15:02.197Z,23.50
2023-04-21T09:16:02.271Z,22.60
2023-04-21T09:17:02.130Z,23.70
2023-04-21T09:18:02.206Z,24.40
2023-04-21T09:19:02.078Z,21.90
2023-04-21T09:20:02.148Z,23.50
2023-04-21T09:21:02.057Z,21.60
2023-04-21T09:22:02.097Z,22.90
2023-04-21T09:23:02.141Z,24.90
2023-04-21T09:24:02.051Z,22.90
2023-04-21T09:25:02.065Z,22.80
2023-04-21T09:26:02.779Z,20.70
2023-04-21T09:27:02.920Z,22.90
2023-04-21T09:28:02.110Z,24.60
2023-04-21T09:29:02.802Z,26.50
2023-04-21T09:30:01.980Z,21.20
2023-04-21T09:31:02.018Z,21.90
2023-04-21T09:32:02.800Z,19.70
2023-04-21T09:33:03.315Z,22.30
2023-04-21T09:34:02.021Z,24.00
2023-04-21T09:35:01.919Z,25.20
2023-04-21T09:36:01.930Z,22.30
2023-04-21T09:37:01.895Z,21.50
2023-04-21T09:38:01.916Z,22.90
2023-04-21T09:40:05.068Z,22.80
2023-04-21T09:41:01.887Z,23.20
2023-04-21T09:42:01.859Z,22.90
2023-04-21T09:43:01.830Z,21.00
2023-04-21T09:44:02.121Z,22.50
2023-04-21T09:45:23.660Z,23.10
2023-04-21T09:46:02.886Z,24.90
2023-04-21T09:47:01.789Z,22.40
2023-04-21T09:48:01.949Z,22.20
2023-04-21T09:49:01.751Z,23.80
2023-04-21T09:50:02.656Z,25.20
2023-04-21T09:51:27.211Z,22.00
2023-04-21T09:53:01.748Z,19.40
2023-04-21T09:54:01.715Z,23.20
2023-04-21T09:55:01.697Z,24.00
2023-04-21T09:56:01.713Z,22.00
2023-04-21T09:57:01.880Z,22.30
2023-04-21T09:58:01.672Z,20.80
2023-04-21T09:59:01.635Z,20.00
2023-04-21T10:00:01.734Z,19.10
2023-04-21T10:01:01.658Z,18.60
2023-04-21T10:02:01.760Z,20.40
2023-04-21T10:03:01.750Z,22.20
2023-04-21T10:04:01.710Z,21.10
2023-04-21T10:05:01.835Z,21.10
2023-04-21T10:06:01.637Z,19.60
2023-04-21T10:07:01.628Z,19.20
2023-04-21T10:08:01.567Z,21.10
2023-04-21T10:09:01.504Z,20.50
2023-04-21T10:10:01.700Z,19.90
2023-04-21T10:11:01.547Z,19.10
2023-04-21T10:12:01.525Z,21.70
2023-04-21T10:13:01.581Z,20.30
2023-04-21T10:14:01.490Z,18.70
2023-04-21T10:15:01.525Z,19.50
2023-04-21T10:16:01.547Z,20.20
2023-04-21T10:17:01.456Z,18.90
2023-04-21T10:18:01.449Z,18.50
2023-04-21T10:19:01.551Z,18.90
2023-04-21T10:20:01.437Z,19.30
2023-04-21T10:21:01.509Z,20.80
2023-04-21T10:22:01.432Z,18.50
2023-04-21T10:23:01.609Z,19.80
2023-04-21T10:24:01.418Z,19.50
2023-04-21T10:25:01.347Z,20.60
2023-04-21T10:26:01.351Z,19.80
2023-04-21T10:27:01.359Z,18.30
2023-04-21T10:28:02.090Z,19.80
2023-04-21T10:29:01.366Z,18.50
2023-04-21T10:30:02.247Z,19.40
2023-04-21T10:31:01.291Z,18.60
2023-04-21T10:32:01.466Z,20.60
2023-04-21T10:33:01.318Z,20.20
2023-04-21T10:34:01.323Z,18.10
2023-04-21T10:35:01.232Z,19.80
2023-04-21T10:36:01.313Z,22.10
2023-04-21T10:37:01.248Z,21.00
2023-04-21T10:38:01.249Z,19.70
2023-04-21T10:39:01.167Z,18.70
2023-04-21T10:40:01.207Z,18.70
2023-04-21T10:41:01.230Z,16.90
2023-04-21T10:42:01.169Z,19.30
2023-04-21T10:43:01.141Z,18.60
2023-04-21T10:44:01.283Z,21.30
2023-04-21T10:45:01.187Z,19.10
2023-04-21T10:46:01.125Z,18.80
2023-04-21T10:47:01.213Z,18.50
2023-04-21T10:48:01.302Z,18.20
2023-04-21T10:49:01.289Z,19.40
2023-04-21T10:50:01.136Z,19.70
2023-04-21T10:51:01.068Z,17.60
2023-04-21T10:52:01.209Z,18.30
2023-04-21T10:53:01.150Z,19.60
2023-04-21T10:54:01.014Z,18.40
2023-04-21T10:55:01.005Z,19.10
2023-04-21T10:56:00.982Z,15.30
2023-04-21T10:57:01.003Z,15.40
2023-04-21T10:58:01.022Z,17.60
2023-04-21T10:59:00.988Z,16.90
2023-04-21T11:00:00.988Z,15.50
2023-04-21T11:01:00.994Z,18.40
2023-04-21T11:02:01.108Z,17.00
2023-04-21T11:03:01.112Z,15.40
2023-04-21T11:04:01.024Z,15.70
2023-04-21T11:05:01.185Z,20.10
2023-04-21T11:06:00.966Z,16.40
2023-04-21T11:07:00.913Z,15.30
2023-04-21T11:08:00.874Z,16.00
2023-04-21T11:09:00.886Z,16.60
2023-04-21T11:10:00.866Z,16.80
2023-04-21T11:11:00.912Z,14.30
2023-04-21T11:12:00.857Z,15.20
2023-04-21T11:13:00.839Z,15.10
2023-04-21T11:14:01.069Z,16.60
2023-04-21T11:15:00.848Z,16.70
2023-04-21T11:16:01.047Z,16.20
2023-04-21T11:17:01.076Z,17.10
2023-04-21T11:18:00.765Z,17.30
2023-04-21T11:19:00.771Z,15.50
2023-04-21T11:20:00.726Z,17.80
2023-04-21T11:21:00.724Z,16.00
2023-04-21T11:22:00.763Z,14.60
2023-04-21T11:23:00.788Z,16.70
2023-04-21T11:24:00.682Z,15.20
2023-04-21T11:25:00.681Z,15.80
2023-04-21T11:26:00.667Z,15.10
2023-04-21T11:27:00.764Z,15.30
2023-04-21T11:28:00.640Z,15.60
2023-04-21T11:29:00.933Z,14.70
2023-04-21T11:30:00.601Z,14.80
2023-04-21T11:31:00.700Z,15.70
2023-04-21T11:32:00.660Z,17.30
2023-04-21T11:33:00.656Z,13.30
2023-04-21T11:34:00.629Z,14.30
2023-04-21T11:35:00.644Z,14.90
2023-04-21T11:36:00.539Z,16.50
2023-04-21T11:37:00.650Z,15.90
2023-04-21T11:38:00.564Z,15.90
2023-04-21T11:39:00.627Z,14.80
2023-04-21T11:40:00.601Z,14.60
2023-04-21T11:41:00.647Z,16.80
2023-04-21T11:42:00.470Z,13.80
2023-04-21T11:43:00.482Z,16.70
2023-04-21T11:44:00.419Z,13.00
2023-04-21T11:45:00.551Z,15.60
2023-04-21T11:46:00.493Z,13.90
2023-04-21T11:47:00.505Z,15.50
2023-04-21T11:48:00.426Z,13.40
2023-04-21T11:49:00.429Z,13.10
2023-04-21T11:50:01.270Z,13.50
2023-04-21T11:51:00.361Z,14.70
2023-04-21T11:52:00.452Z,14.50
2023-04-21T11:53:00.383Z,13.50
2023-04-21T11:54:00.393Z,15.40
2023-04-21T11:55:00.323Z,13.40
2023-04-21T11:56:00.366Z,13.50
2023-04-21T11:57:02.445Z,15.10
2023-04-21T11:58:00.270Z,14.10
2023-04-21T11:59:00.332Z,11.10
2023-04-21T12:00:00.315Z,13.30
2023-04-21T12:01:00.289Z,13.00
2023-04-21T12:02:00.300Z,12.50
2023-04-21T12:03:00.542Z,11.10
2023-04-21T12:04:00.488Z,11.60
2023-04-21T12:05:00.622Z,10.80
2023-04-21T12:06:00.427Z,11.90
2023-04-21T12:07:00.181Z,10.70
2023-04-21T12:08:00.472Z,11.50
2023-04-21T12:09:00.246Z,12.20
2023-04-21T12:10:01.206Z,11.80
2023-04-21T12:11:00.989Z,10.10
2023-04-21T12:12:00.184Z,11.40
2023-04-21T12:13:00.151Z,10.80
2023-04-21T12:14:00.176Z,12.30
2023-04-21T12:15:00.163Z,11.50
2023-04-21T12:16:00.218Z,10.90
2023-04-21T12:17:00.116Z,11.30
2023-04-21T12:18:00.077Z,12.00
2023-04-21T12:19:00.037Z,11.50
2023-04-21T12:20:00.096Z,11.70
2023-04-21T12:21:00.053Z,11.00
2023-04-21T12:22:00.004Z,10.20
2023-04-21T12:23:00.048Z,10.50
2023-04-21T12:23:59.994Z,10.50
2023-04-21T12:24:59.991Z,11.40
2023-04-21T12:26:00.047Z,10.70
2023-04-21T12:26:59.980Z,10.00
2023-04-21T12:27:59.965Z,10.80
2023-04-21T12:29:00.007Z,14.60
2023-04-21T12:29:59.921Z,9.20
2023-04-21T12:30:59.935Z,10.10
2023-04-21T12:31:59.937Z,10.90
2023-04-21T12:33:00.812Z,11.00
2023-04-21T12:33:59.962Z,12.00
2023-04-21T12:35:00.055Z,11.70
2023-04-21T12:36:00.263Z,10.10
2023-04-21T12:36:59.892Z,13.60
2023-04-21T12:37:59.852Z,12.00
2023-04-21T12:38:59.856Z,10.90
2023-04-21T12:39:59.800Z,10.90
2023-04-21T12:40:59.943Z,12.40
2023-04-21T12:41:59.797Z,10.60
2023-04-21T12:42:59.781Z,10.40
2023-04-21T12:43:59.740Z,9.30
2023-04-21T12:44:59.754Z,9.30
2023-04-21T12:45:59.788Z,13.00
2023-04-21T12:46:59.778Z,11.80
2023-04-21T12:47:59.838Z,10.50
2023-04-21T12:48:59.743Z,11.10
2023-04-21T12:49:59.721Z,11.00
2023-04-21T12:50:59.720Z,11.40
2023-04-21T12:51:59.769Z,11.50
2023-04-21T12:52:59.773Z,10.40
2023-04-21T12:53:59.634Z,11.00
2023-04-21T12:54:59.704Z,9.80